Terminal Aerodrome Forecast
Issued by NWS Green Bay, WI

Home | Current Version | Previous Version | Text Only | Print | Product List | Glossary Off
Versions: 1 2 3 4 5 6 7 8 9 10 11 12 13 14 15 16 17 18 19 20 21 22 23 24 25 26 27 28 29 30 31 32 33 34 35 36

000
FTUS43 KGRB 300900 AAB
TAFGRB
TAF AMD
KGRB 300910Z 3009/3106 01004KT 5SM BR SCT012
      TEMPO 3009/3011 1 1/2SM BR BKN012
     FM301200 34003KT P6SM SCT020 SCT070
     FM302000 23005KT P6SM VCSH SCT035 BKN060=

USA.gov is the U.S. government's official web portal to all federal, state and local government web resources and services.